Time;durP1;ratioP1;P1;durP2;ratioP2;P2;SDS_P1;SDS_P2;PMS_P1;PMS_P2;Temp;Humidity;BMP_temperature;BMP_pressure;BME280_temperature;BME280_humidity;BME280_pressure;Samples;Min_cycle;Max_cycle;Signal;HPM_P1;HPM_P2
2023/04/26 00:01:22;;;;;;;6.00;3.20;;;6.20;99.90;;;;;;5024274;28;20393;-76
2023/04/26 00:03:48;;;;;;;8.03;3.77;;;6.30;99.90;;;;;;5014048;28;20430;-76
2023/04/26 00:06:15;;;;;;;5.70;3.47;;;6.20;99.90;;;;;;5007510;28;20640;-76
2023/04/26 00:08:43;;;;;;;6.33;3.30;;;6.10;99.90;;;;;;5007354;28;20457;-76
2023/04/26 00:11:09;;;;;;;5.53;3.50;;;6.10;99.90;;;;;;5008403;28;20963;-76
2023/04/26 00:13:36;;;;;;;6.77;3.00;;;6.20;99.90;;;;;;5008344;28;20443;-76
2023/04/26 00:16:02;;;;;;;4.97;3.50;;;6.00;99.90;;;;;;5008775;28;20168;-76
2023/04/26 00:18:28;;;;;;;5.13;3.60;;;6.00;99.90;;;;;;5008651;28;20433;-76
2023/04/26 00:20:53;;;;;;;6.03;3.10;;;6.10;99.90;;;;;;5008434;28;20442;-76
2023/04/26 00:23:19;;;;;;;7.07;3.57;;;5.80;99.90;;;;;;5008557;28;20187;-76
2023/04/26 00:25:45;;;;;;;6.43;3.60;;;6.00;99.90;;;;;;5008319;28;20222;-75
2023/04/26 00:28:10;;;;;;;5.33;3.03;;;6.00;99.90;;;;;;5008514;28;20214;-76
2023/04/26 00:30:40;;;;;;;9.87;3.33;;;5.80;99.90;;;;;;5007011;28;20477;-76
2023/04/26 00:33:05;;;;;;;5.00;4.43;;;5.80;99.90;;;;;;5007113;28;20181;-76
2023/04/26 00:35:31;;;;;;;4.50;3.10;;;5.80;99.90;;;;;;5011321;28;20777;-76
2023/04/26 00:37:56;;;;;;;7.10;3.80;;;5.80;99.90;;;;;;5011937;28;20660;-76
2023/04/26 00:40:22;;;;;;;6.90;3.17;;;5.80;99.90;;;;;;5011805;28;20640;-76
2023/04/26 00:42:48;;;;;;;5.97;4.20;;;5.70;99.90;;;;;;5012196;28;20167;-76
2023/04/26 00:45:14;;;;;;;6.70;2.73;;;6.00;99.90;;;;;;5011912;28;20949;-76
2023/04/26 00:47:40;;;;;;;5.40;4.00;;;5.80;99.90;;;;;;5011883;28;20175;-76
2023/04/26 00:50:07;;;;;;;5.23;3.63;;;5.70;99.90;;;;;;5011664;28;20418;-76
2023/04/26 00:52:32;;;;;;;8.07;3.47;;;5.90;99.90;;;;;;5011825;28;20449;-76
2023/04/26 00:54:58;;;;;;;5.50;3.67;;;5.70;99.90;;;;;;5011844;28;20422;-76
2023/04/26 00:57:24;;;;;;;5.90;3.30;;;5.90;99.90;;;;;;5011810;28;20425;-75
2023/04/26 00:59:50;;;;;;;6.90;4.03;;;6.00;99.90;;;;;;5010701;28;20191;-76
2023/04/26 01:02:16;;;;;;;6.70;3.10;;;5.80;99.90;;;;;;5011590;28;20442;-76
2023/04/26 01:04:44;;;;;;;4.03;3.43;;;5.80;99.90;;;;;;5026797;28;20213;-76
2023/04/26 01:07:10;;;;;;;6.60;3.80;;;5.90;99.90;;;;;;5026703;28;20186;-76
2023/04/26 01:09:36;;;;;;;5.13;3.33;;;5.80;99.90;;;;;;5011750;28;20556;-76
2023/04/26 01:12:02;;;;;;;4.40;3.30;;;5.80;99.90;;;;;;5011691;28;21022;-77
2023/04/26 01:14:28;;;;;;;6.90;3.73;;;5.80;99.90;;;;;;5010682;28;20179;-76
2023/04/26 01:16:55;;;;;;;8.23;3.40;;;5.60;99.90;;;;;;5012201;28;20419;-76
2023/04/26 01:19:22;;;;;;;5.90;3.33;;;5.60;99.90;;;;;;5011890;28;20422;-76
2023/04/26 01:21:47;;;;;;;8.63;3.60;;;5.50;99.90;;;;;;4999338;28;20454;-75
2023/04/26 01:24:13;;;;;;;5.50;4.00;;;5.50;99.90;;;;;;4991739;28;20971;-76
2023/04/26 01:26:45;;;;;;;9.50;3.87;;;5.50;99.90;;;;;;4991707;28;20195;-76
2023/04/26 01:29:15;;;;;;;6.63;3.53;;;5.50;99.90;;;;;;4992014;28;20208;-76
2023/04/26 01:31:40;;;;;;;4.90;3.40;;;5.60;99.90;;;;;;4990112;28;20474;-76
2023/04/26 01:34:06;;;;;;;4.73;3.83;;;5.50;99.90;;;;;;5006775;28;20932;-76
2023/04/26 01:36:32;;;;;;;5.23;3.67;;;5.40;99.90;;;;;;4990570;28;20658;-75
2023/04/26 01:38:57;;;;;;;6.63;3.40;;;5.40;99.90;;;;;;4991397;28;20207;-76
2023/04/26 01:41:23;;;;;;;8.33;3.30;;;5.50;99.90;;;;;;5000850;28;20202;-76
2023/04/26 01:43:49;;;;;;;6.70;3.67;;;5.40;99.90;;;;;;5009685;28;20751;-76
2023/04/26 01:46:15;;;;;;;7.23;4.00;;;5.30;99.90;;;;;;5009491;28;20207;-75
2023/04/26 01:48:40;;;;;;;9.03;4.60;;;5.40;99.90;;;;;;5009436;28;20994;-76
2023/04/26 01:51:06;;;;;;;9.00;4.43;;;5.20;99.90;;;;;;5025891;28;20199;-75
2023/04/26 01:53:32;;;;;;;7.80;3.70;;;5.10;99.90;;;;;;5010617;28;20191;-75
2023/04/26 01:56:01;;;;;;;5.30;3.87;;;5.10;99.90;;;;;;5010817;28;20179;-75
2023/04/26 01:58:28;;;;;;;4.93;3.93;;;5.20;99.90;;;;;;5010829;28;20414;-75
2023/04/26 02:00:55;;;;;;;3.70;3.23;;;5.10;99.90;;;;;;5010618;28;20446;-75
2023/04/26 02:03:20;;;;;;;7.73;3.87;;;5.00;99.90;;;;;;5010770;28;20780;-76
2023/04/26 02:05:46;;;;;;;5.67;3.57;;;5.00;99.90;;;;;;5010707;28;20422;-76
2023/04/26 02:08:12;;;;;;;5.00;3.50;;;5.20;99.90;;;;;;5010488;28;20505;-76
2023/04/26 02:10:38;;;;;;;5.67;4.00;;;5.10;99.90;;;;;;5009507;28;20199;-75
2023/04/26 02:13:06;;;;;;;5.70;3.60;;;5.10;99.90;;;;;;5009247;28;20449;-76
2023/04/26 02:15:32;;;;;;;5.40;4.07;;;5.10;99.90;;;;;;5010768;28;20414;-76
2023/04/26 02:17:58;;;;;;;8.07;4.07;;;5.20;99.90;;;;;;5010246;28;20927;-76
2023/04/26 02:20:24;;;;;;;8.70;3.60;;;5.10;99.90;;;;;;5009679;28;20270;-76
2023/04/26 02:22:49;;;;;;;5.07;3.90;;;5.20;99.90;;;;;;4990761;28;20653;-76
2023/04/26 02:25:15;;;;;;;5.57;3.77;;;5.10;99.90;;;;;;4990765;28;20188;-75
2023/04/26 02:27:41;;;;;;;7.37;4.07;;;5.20;99.90;;;;;;4988897;28;20188;-75
2023/04/26 02:30:08;;;;;;;6.97;4.80;;;5.20;99.90;;;;;;4989262;28;20191;-76
2023/04/26 02:32:34;;;;;;;5.73;3.77;;;5.20;99.90;;;;;;4989238;28;20211;-76
2023/04/26 02:35:00;;;;;;;7.40;4.00;;;5.20;99.90;;;;;;4990467;28;20411;-75
2023/04/26 02:37:26;;;;;;;5.57;3.77;;;5.20;99.90;;;;;;4990208;28;20446;-75
2023/04/26 02:39:51;;;;;;;7.30;4.57;;;5.20;99.90;;;;;;4990347;28;20502;-75
2023/04/26 02:42:17;;;;;;;8.03;4.60;;;5.00;99.90;;;;;;5007313;28;20662;-75
2023/04/26 02:44:43;;;;;;;10.07;5.73;;;5.20;99.90;;;;;;5009838;28;20414;-76
2023/04/26 02:47:08;;;;;;;11.70;4.80;;;5.00;99.90;;;;;;5008691;28;20245;-75
2023/04/26 02:49:34;;;;;;;7.20;4.57;;;4.90;99.90;;;;;;5009894;28;20664;-76
2023/04/26 02:52:00;;;;;;;7.60;4.40;;;4.90;99.90;;;;;;5009826;28;20260;-76
2023/04/26 02:54:25;;;;;;;8.40;4.50;;;5.00;99.90;;;;;;5025095;28;20213;-76
2023/04/26 02:56:51;;;;;;;7.73;4.47;;;5.10;99.90;;;;;;5010291;28;20185;-75
2023/04/26 02:59:17;;;;;;;9.23;4.13;;;5.20;99.90;;;;;;5008975;28;20340;-75
2023/04/26 03:01:42;;;;;;;6.37;4.43;;;5.10;99.90;;;;;;5010379;28;20582;-75
2023/04/26 03:04:08;;;;;;;8.93;4.97;;;5.00;99.90;;;;;;5009780;28;20179;-76
2023/04/26 03:06:34;;;;;;;5.27;4.43;;;5.00;99.90;;;;;;5009600;28;20183;-76
2023/04/26 03:09:00;;;;;;;10.10;5.30;;;5.20;99.90;;;;;;5008061;28;20210;-76
2023/04/26 03:11:26;;;;;;;9.50;4.80;;;4.80;99.90;;;;;;5009211;28;20437;-75
2023/04/26 03:13:51;;;;;;;10.50;5.07;;;5.00;99.90;;;;;;5007857;28;20262;-76
2023/04/26 03:16:22;;;;;;;6.47;4.43;;;4.90;99.90;;;;;;5009365;28;20171;-75
2023/04/26 03:18:47;;;;;;;6.50;4.63;;;4.90;99.90;;;;;;5007967;28;20187;-75
2023/04/26 03:21:13;;;;;;;11.00;5.13;;;4.80;99.90;;;;;;5000628;28;20465;-75
2023/04/26 03:23:39;;;;;;;8.70;5.27;;;4.80;99.90;;;;;;4989305;28;20184;-75
2023/04/26 03:26:04;;;;;;;9.37;6.20;;;5.00;99.90;;;;;;4987369;28;20191;-76
2023/04/26 03:28:30;;;;;;;12.77;5.57;;;4.90;99.90;;;;;;5004771;28;20289;-76
2023/04/26 03:30:56;;;;;;;8.07;4.93;;;4.80;99.90;;;;;;4989317;28;20295;-76
2023/04/26 03:33:21;;;;;;;9.20;5.70;;;4.80;99.90;;;;;;5004278;28;20553;-76
2023/04/26 03:35:47;;;;;;;9.43;6.07;;;4.80;99.90;;;;;;4988280;28;20195;-75
2023/04/26 03:38:13;;;;;;;10.73;5.90;;;5.00;99.90;;;;;;4989079;28;20192;-75
2023/04/26 03:40:38;;;;;;;8.43;5.63;;;4.80;99.90;;;;;;4992836;28;20669;-75
2023/04/26 03:43:04;;;;;;;8.60;6.60;;;4.80;99.90;;;;;;5008563;28;20179;-75
2023/04/26 03:45:30;;;;;;;11.83;7.23;;;4.70;99.90;;;;;;5007964;28;20182;-75
2023/04/26 03:47:55;;;;;;;9.83;6.13;;;5.00;99.90;;;;;;5007301;28;20187;-75
2023/04/26 03:50:21;;;;;;;12.77;7.10;;;5.00;99.90;;;;;;5008787;28;20175;-75
2023/04/26 03:52:47;;;;;;;9.97;7.10;;;5.00;99.90;;;;;;5008864;28;20183;-76
2023/04/26 03:55:13;;;;;;;11.50;7.03;;;4.80;99.90;;;;;;5023878;28;20231;-76
2023/04/26 03:57:38;;;;;;;12.40;7.40;;;4.80;99.90;;;;;;5007378;28;20628;-75
2023/04/26 04:00:13;;;;;;;9.20;6.60;;;4.70;99.90;;;;;;5023743;28;20267;-76
2023/04/26 04:02:39;;;;;;;11.63;7.70;;;4.60;99.90;;;;;;5008922;28;20256;-76
2023/04/26 04:05:05;;;;;;;13.60;8.30;;;4.80;99.90;;;;;;4990887;28;20480;-76
2023/04/26 04:07:33;;;;;;;11.33;8.10;;;4.70;99.90;;;;;;5008539;28;20426;-76
2023/04/26 04:10:00;;;;;;;10.83;7.50;;;4.90;99.90;;;;;;5011133;28;20468;-76
2023/04/26 04:12:26;;;;;;;15.60;8.20;;;4.70;99.90;;;;;;5012553;28;20521;-75
2023/04/26 04:14:51;;;;;;;11.17;8.20;;;4.70;99.90;;;;;;5012544;28;20496;-75
2023/04/26 04:17:18;;;;;;;14.90;7.80;;;4.70;99.90;;;;;;5012490;28;20410;-76
2023/04/26 04:19:46;;;;;;;11.87;7.37;;;4.80;99.90;;;;;;5011405;28;20210;-75
2023/04/26 04:22:12;;;;;;;10.73;7.30;;;4.80;99.90;;;;;;4997284;28;20450;-76
2023/04/26 04:24:37;;;;;;;11.80;7.60;;;4.80;99.90;;;;;;4992724;28;20427;-76
2023/04/26 04:27:03;;;;;;;14.30;8.10;;;4.60;99.90;;;;;;4992612;28;21071;-75
2023/04/26 04:29:29;;;;;;;12.53;8.23;;;4.80;99.90;;;;;;4991174;28;20211;-76
2023/04/26 04:31:55;;;;;;;9.93;7.50;;;4.60;99.90;;;;;;4991449;28;20370;-76
2023/04/26 04:34:22;;;;;;;14.07;9.43;;;4.70;99.90;;;;;;4992448;28;20837;-75
2023/04/26 04:36:49;;;;;;;12.33;8.23;;;4.60;99.90;;;;;;4991101;28;20322;-75
2023/04/26 04:39:16;;;;;;;13.80;8.27;;;4.70;99.90;;;;;;4992481;28;20496;-76
2023/04/26 04:41:47;;;;;;;13.83;8.47;;;4.70;99.90;;;;;;5004776;28;20437;-76
2023/04/26 04:44:15;;;;;;;14.63;8.70;;;4.60;99.90;;;;;;5035771;28;20440;-77
2023/04/26 04:46:41;;;;;;;12.00;7.67;;;4.70;99.90;;;;;;5023080;28;20417;-77
2023/04/26 04:49:08;;;;;;;15.07;8.87;;;4.70;99.90;;;;;;5031136;28;20460;-77
2023/04/26 04:51:35;;;;;;;14.10;8.20;;;4.70;99.90;;;;;;5031475;28;20433;-77
2023/04/26 04:54:12;;;;;;;11.30;7.93;;;4.70;99.90;;;;;;5031552;28;20607;-77
2023/04/26 04:56:38;;;;;;;11.37;8.10;;;4.60;99.90;;;;;;5017244;28;20437;-75
2023/04/26 04:59:04;;;;;;;11.43;7.43;;;4.70;99.90;;;;;;5018476;28;20868;-76
2023/04/26 05:01:33;;;;;;;13.40;8.13;;;4.70;99.90;;;;;;5026750;28;20442;-75
2023/04/26 05:03:59;;;;;;;11.60;7.67;;;4.70;99.90;;;;;;5010153;28;20418;-75
2023/04/26 05:06:26;;;;;;;15.70;8.03;;;4.80;99.90;;;;;;5012079;28;20487;-76
2023/04/26 05:08:53;;;;;;;13.00;8.60;;;4.80;99.90;;;;;;5010194;28;20478;-75
2023/04/26 05:11:18;;;;;;;14.17;8.50;;;4.90;99.90;;;;;;5010283;28;20433;-76
2023/04/26 05:13:45;;;;;;;14.50;7.87;;;5.10;99.90;;;;;;5010002;28;20488;-76
2023/04/26 05:16:11;;;;;;;12.87;8.93;;;5.20;99.90;;;;;;5011491;28;20274;-76
2023/04/26 05:18:37;;;;;;;15.30;8.90;;;5.20;99.90;;;;;;5010132;28;20425;-75
2023/04/26 05:21:03;;;;;;;14.87;8.80;;;5.20;99.90;;;;;;5005227;28;20736;-75
2023/04/26 05:23:28;;;;;;;14.00;8.33;;;5.30;99.90;;;;;;4990150;28;20192;-76
2023/04/26 05:25:54;;;;;;;15.43;9.10;;;5.40;99.90;;;;;;4990353;28;20275;-75
2023/04/26 05:28:20;;;;;;;12.80;8.53;;;5.30;99.90;;;;;;5002024;28;20214;-76
2023/04/26 05:30:46;;;;;;;20.13;10.37;;;5.30;99.90;;;;;;5018011;28;20696;-75
2023/04/26 05:33:12;;;;;;;14.43;8.47;;;5.40;99.90;;;;;;5029416;28;20724;-75
2023/04/26 05:35:38;;;;;;;13.67;8.30;;;5.60;99.90;;;;;;5029766;28;20449;-75
2023/04/26 05:38:04;;;;;;;12.30;8.70;;;5.70;99.90;;;;;;5030460;28;20563;-76
2023/04/26 05:40:31;;;;;;;16.00;9.43;;;5.60;99.90;;;;;;5028047;28;20414;-76
2023/04/26 05:42:56;;;;;;;11.37;8.37;;;5.70;99.90;;;;;;5009639;28;20183;-76
2023/04/26 05:45:22;;;;;;;14.13;8.90;;;6.00;99.90;;;;;;5010779;28;20410;-76
2023/04/26 05:47:48;;;;;;;13.93;9.20;;;5.80;99.90;;;;;;5010704;28;20180;-76
2023/04/26 05:50:14;;;;;;;15.60;8.73;;;6.00;99.90;;;;;;5009514;28;20417;-76
2023/04/26 05:52:39;;;;;;;17.93;9.80;;;6.30;99.90;;;;;;5010766;28;20214;-75
2023/04/26 05:55:05;;;;;;;16.10;9.50;;;6.40;99.90;;;;;;5010561;28;20176;-75
2023/04/26 05:57:31;;;;;;;13.83;9.13;;;6.50;99.90;;;;;;5009238;28;20187;-75
2023/04/26 05:59:57;;;;;;;14.70;9.93;;;6.60;99.90;;;;;;5008097;28;20446;-75
2023/04/26 06:02:23;;;;;;;17.30;9.23;;;6.70;99.90;;;;;;5017005;28;20250;-75
2023/04/26 06:04:48;;;;;;;18.47;9.60;;;6.80;99.90;;;;;;5025701;28;20193;-76
2023/04/26 06:07:16;;;;;;;14.53;10.00;;;6.90;99.90;;;;;;5028817;28;20198;-75
2023/04/26 06:09:42;;;;;;;15.10;9.30;;;7.10;99.90;;;;;;5030019;28;20479;-75
2023/04/26 06:12:08;;;;;;;14.73;9.10;;;7.20;99.90;;;;;;5029287;28;20445;-76
2023/04/26 06:14:33;;;;;;;11.20;8.30;;;7.30;99.90;;;;;;5030288;28;20956;-75
2023/04/26 06:16:59;;;;;;;14.07;9.30;;;7.50;99.90;;;;;;5020954;28;20191;-76
2023/04/26 06:19:25;;;;;;;20.13;9.43;;;7.60;99.90;;;;;;5007706;28;20567;-76
2023/04/26 06:21:54;;;;;;;11.90;8.43;;;7.70;99.90;;;;;;5014331;28;20205;-76
2023/04/26 06:24:20;;;;;;;11.87;7.70;;;7.80;99.90;;;;;;5018927;28;20262;-75
2023/04/26 06:26:46;;;;;;;16.97;9.17;;;8.00;99.90;;;;;;5008575;28;20422;-75
2023/04/26 06:29:11;;;;;;;15.63;8.60;;;8.10;99.90;;;;;;5008253;28;20838;-76
2023/04/26 06:31:37;;;;;;;12.17;7.50;;;8.20;99.90;;;;;;5027297;28;20246;-75
2023/04/26 06:34:03;;;;;;;9.93;7.30;;;8.30;99.90;;;;;;5008693;28;20830;-76
2023/04/26 06:36:30;;;;;;;10.27;7.30;;;8.40;99.90;;;;;;5008672;28;20180;-76
2023/04/26 06:38:55;;;;;;;11.17;7.43;;;8.50;99.90;;;;;;5019546;28;20497;-76
2023/04/26 06:41:21;;;;;;;13.43;7.07;;;8.60;99.90;;;;;;5011384;28;20603;-75
2023/04/26 06:43:47;;;;;;;13.43;8.30;;;8.60;99.90;;;;;;5012834;28;20257;-75
2023/04/26 06:46:13;;;;;;;10.47;6.50;;;8.70;99.90;;;;;;5008156;28;20321;-75
2023/04/26 06:48:39;;;;;;;10.87;7.10;;;8.80;99.90;;;;;;5008590;28;20548;-76
2023/04/26 06:51:08;;;;;;;9.17;5.80;;;8.90;99.90;;;;;;5008996;28;20203;-75
2023/04/26 06:53:35;;;;;;;9.67;5.80;;;9.00;99.90;;;;;;5007270;28;20744;-76
2023/04/26 06:56:01;;;;;;;11.77;7.20;;;9.00;99.90;;;;;;5009259;28;20418;-75
2023/04/26 06:58:27;;;;;;;11.57;6.40;;;9.10;99.90;;;;;;5009605;28;20756;-75
2023/04/26 07:00:53;;;;;;;13.47;6.70;;;9.20;99.90;;;;;;5024400;28;20453;-75
2023/04/26 07:03:18;;;;;;;9.70;6.20;;;9.20;99.90;;;;;;5009960;28;20178;-76
2023/04/26 07:05:44;;;;;;;13.23;6.50;;;9.20;99.90;;;;;;5025433;28;20262;-75
2023/04/26 07:08:10;;;;;;;13.17;6.57;;;9.30;99.90;;;;;;5009858;28;20549;-76
2023/04/26 07:10:38;;;;;;;12.67;5.40;;;9.30;99.90;;;;;;5009034;28;20287;-76
2023/04/26 07:13:04;;;;;;;8.07;4.80;;;9.30;99.90;;;;;;5024913;28;21117;-76
2023/04/26 07:15:30;;;;;;;6.47;4.00;;;9.40;99.90;;;;;;5010274;28;20418;-76
2023/04/26 07:17:56;;;;;;;8.03;3.60;;;9.40;99.90;;;;;;5009765;28;20179;-75
2023/04/26 07:20:23;;;;;;;8.03;4.27;;;9.40;99.90;;;;;;5024842;28;20418;-76
2023/04/26 07:22:49;;;;;;;6.60;3.20;;;9.40;99.90;;;;;;5024802;28;20218;-76
2023/04/26 07:25:15;;;;;;;5.67;3.03;;;9.30;99.90;;;;;;5009307;28;20915;-76
2023/04/26 07:27:41;;;;;;;7.50;3.40;;;9.20;99.90;;;;;;5008938;28;20508;-75
2023/04/26 07:30:09;;;;;;;9.30;4.40;;;9.20;99.90;;;;;;4997030;28;20960;-75
2023/04/26 07:32:35;;;;;;;9.03;5.37;;;9.10;99.90;;;;;;4989378;28;20262;-75
2023/04/26 07:35:03;;;;;;;6.90;4.80;;;9.10;99.90;;;;;;4989602;28;20415;-76
2023/04/26 07:37:29;;;;;;;6.10;3.87;;;9.00;99.90;;;;;;5007723;28;20454;-76
2023/04/26 07:39:54;;;;;;;5.30;3.13;;;9.00;99.90;;;;;;5004453;28;20938;-76
2023/04/26 07:42:20;;;;;;;8.83;3.37;;;9.10;99.90;;;;;;5006325;28;20935;-75
2023/04/26 07:44:48;;;;;;;9.00;4.47;;;9.10;99.90;;;;;;5008861;28;20187;-75
2023/04/26 07:47:13;;;;;;;8.40;3.47;;;9.10;99.90;;;;;;5009899;28;20206;-76
2023/04/26 07:49:40;;;;;;;7.43;3.73;;;9.10;99.90;;;;;;5009232;28;20917;-76
2023/04/26 07:52:07;;;;;;;3.47;2.23;;;9.20;99.90;;;;;;5008154;28;20199;-75
2023/04/26 07:54:33;;;;;;;5.70;2.77;;;9.30;99.90;;;;;;5008854;28;20427;-76
2023/04/26 07:56:58;;;;;;;7.20;3.43;;;9.30;99.90;;;;;;5007379;28;20468;-76
2023/04/26 07:59:24;;;;;;;7.10;4.30;;;9.30;99.90;;;;;;5008702;28;20180;-75
2023/04/26 08:01:50;;;;;;;9.73;4.60;;;9.40;99.90;;;;;;5008745;28;20731;-76
2023/04/26 08:04:17;;;;;;;6.47;4.33;;;9.40;99.90;;;;;;5007588;28;20430;-76
2023/04/26 08:06:43;;;;;;;15.30;5.37;;;9.40;99.90;;;;;;5007485;28;20281;-75
2023/04/26 08:09:10;;;;;;;12.03;4.50;;;9.40;99.90;;;;;;5008812;28;20867;-76
2023/04/26 08:11:36;;;;;;;12.17;5.50;;;9.40;99.90;;;;;;5008617;28;20438;-75
2023/04/26 08:14:01;;;;;;;7.37;5.43;;;9.30;99.90;;;;;;5008354;28;20505;-76
2023/04/26 08:16:27;;;;;;;9.30;5.70;;;9.40;99.90;;;;;;5008716;28;20425;-75
2023/04/26 08:18:54;;;;;;;10.03;5.73;;;9.30;99.90;;;;;;5008571;28;20691;-75
2023/04/26 08:21:20;;;;;;;9.87;6.63;;;9.30;99.90;;;;;;5007043;28;20470;-76
2023/04/26 08:23:46;;;;;;;10.27;5.43;;;9.30;99.90;;;;;;5008199;28;20452;-76
2023/04/26 08:26:11;;;;;;;11.97;6.27;;;9.30;99.90;;;;;;5023640;28;20187;-75
2023/04/26 08:28:37;;;;;;;7.60;5.27;;;9.30;99.90;;;;;;5008330;28;20234;-75
2023/04/26 08:31:03;;;;;;;8.33;3.90;;;9.30;99.90;;;;;;5008337;28;20203;-76
2023/04/26 08:33:29;;;;;;;4.70;3.00;;;9.30;99.90;;;;;;5007224;28;20183;-75
2023/04/26 08:35:54;;;;;;;4.77;3.00;;;9.40;99.90;;;;;;5007829;28;20743;-76
2023/04/26 08:38:23;;;;;;;3.17;2.60;;;9.40;99.90;;;;;;5007079;28;20555;-76
2023/04/26 08:40:50;;;;;;;4.20;3.17;;;9.40;99.90;;;;;;5006863;28;20269;-75
2023/04/26 08:43:16;;;;;;;3.80;3.30;;;9.50;99.90;;;;;;5007473;28;20418;-75
2023/04/26 08:45:45;;;;;;;4.63;3.00;;;9.50;99.90;;;;;;5008418;28;20425;-75
2023/04/26 08:48:16;;;;;;;7.93;3.10;;;9.60;99.90;;;;;;5006969;28;20953;-76
2023/04/26 08:50:46;;;;;;;6.20;3.50;;;9.50;99.90;;;;;;5006889;28;20442;-76
2023/04/26 08:53:19;;;;;;;4.30;3.37;;;9.60;99.90;;;;;;5007008;28;20488;-76
2023/04/26 08:55:50;;;;;;;5.60;3.10;;;9.60;99.90;;;;;;5010197;28;20480;-75
2023/04/26 08:58:20;;;;;;;7.40;3.57;;;9.70;99.90;;;;;;5011775;28;20413;-75
2023/04/26 09:00:45;;;;;;;3.60;3.03;;;9.60;99.90;;;;;;5010275;28;20438;-75
2023/04/26 09:03:11;;;;;;;6.70;3.70;;;9.60;99.90;;;;;;5011645;28;20429;-76
2023/04/26 09:05:44;;;;;;;4.80;2.70;;;9.60;99.90;;;;;;5010233;28;20319;-75
2023/04/26 09:08:15;;;;;;;15.00;3.40;;;9.70;99.50;;;;;;5011570;28;20274;-76
2023/04/26 09:10:41;;;;;;;5.67;2.77;;;9.70;99.80;;;;;;5011559;28;20967;-75
2023/04/26 09:13:06;;;;;;;4.47;2.50;;;9.70;99.90;;;;;;5011436;28;20425;-75
2023/04/26 09:15:32;;;;;;;7.43;3.10;;;9.70;99.90;;;;;;5011538;28;20418;-76
2023/04/26 09:18:19;;;;;;;7.73;2.90;;;9.70;99.90;;;;;;5011518;28;20183;-76
2023/04/26 09:21:00;;;;;;;8.80;3.20;;;9.70;99.90;;;;;;5007995;28;20203;-75
2023/04/26 09:23:25;;;;;;;7.47;3.50;;;9.80;99.90;;;;;;4990777;28;20924;-75
2023/04/26 09:25:51;;;;;;;4.63;2.87;;;9.90;99.90;;;;;;4991719;28;20416;-76
2023/04/26 09:28:21;;;;;;;4.00;2.63;;;10.00;99.90;;;;;;5007201;28;20273;-75
2023/04/26 09:30:48;;;;;;;8.60;3.10;;;10.10;99.20;;;;;;4991477;28;20200;-75
2023/04/26 09:33:14;;;;;;;5.33;2.87;;;10.10;98.60;;;;;;4991422;28;20905;-76
2023/04/26 09:35:41;;;;;;;7.97;3.00;;;10.10;99.80;;;;;;4990743;28;20419;-75
2023/04/26 09:38:09;;;;;;;5.83;3.23;;;10.20;98.90;;;;;;4991379;28;20439;-75
2023/04/26 09:40:47;;;;;;;3.40;2.70;;;10.10;99.10;;;;;;4994453;28;20452;-76
2023/04/26 09:43:14;;;;;;;5.47;3.20;;;10.10;99.40;;;;;;5010503;28;20418;-76
2023/04/26 09:45:51;;;;;;;4.57;2.70;;;10.10;98.90;;;;;;5011171;28;20425;-76
2023/04/26 09:48:24;;;;;;;4.80;3.37;;;10.10;98.10;;;;;;5009357;28;20457;-76
2023/04/26 09:50:52;;;;;;;6.90;4.00;;;10.10;98.50;;;;;;5010847;28;20434;-76
2023/04/26 09:53:32;;;;;;;5.77;3.77;;;10.00;98.60;;;;;;5010526;28;20930;-75
2023/04/26 09:56:12;;;;;;;9.37;3.83;;;9.90;99.70;;;;;;5026129;28;20413;-75
2023/04/26 09:59:00;;;;;;;7.50;4.17;;;9.90;99.70;;;;;;5010658;28;20433;-75
2023/04/26 10:01:30;;;;;;;7.57;4.40;;;9.80;99.90;;;;;;5009437;28;20855;-75
2023/04/26 10:03:56;;;;;;;5.40;4.13;;;9.80;99.90;;;;;;5010452;28;20414;-76
2023/04/26 10:06:22;;;;;;;7.67;4.40;;;9.80;99.90;;;;;;5009737;28;20513;-75
2023/04/26 10:08:48;;;;;;;5.90;5.23;;;9.90;99.90;;;;;;5010323;28;20970;-75
2023/04/26 10:11:13;;;;;;;9.23;5.17;;;10.10;99.50;;;;;;5010302;28;20445;-76
2023/04/26 10:13:40;;;;;;;7.80;5.43;;;10.20;99.50;;;;;;5008965;28;20213;-75
2023/04/26 10:16:08;;;;;;;5.63;5.13;;;10.40;99.90;;;;;;5010625;28;20199;-75
2023/04/26 10:18:35;;;;;;;5.03;4.63;;;10.60;99.30;;;;;;5009814;28;20432;-75
2023/04/26 10:21:23;;;;;;;8.50;5.10;;;10.70;98.10;;;;;;5007275;28;21043;-75
2023/04/26 10:23:49;;;;;;;7.60;4.97;;;10.70;98.50;;;;;;4994536;28;20427;-76
2023/04/26 10:26:50;;;;;;;6.53;4.67;;;10.80;97.80;;;;;;4990991;28;20453;-76
2023/04/26 10:29:17;;;;;;;5.63;5.00;;;10.80;98.00;;;;;;4990676;28;20473;-75
2023/04/26 10:32:01;;;;;;;7.67;4.90;;;10.80;97.00;;;;;;4990725;28;20510;-75
2023/04/26 10:34:29;;;;;;;6.63;5.30;;;10.90;98.00;;;;;;4990831;28;20841;-76
2023/04/26 10:37:13;;;;;;;9.87;5.73;;;11.00;97.70;;;;;;4989954;28;20489;-75
2023/04/26 10:39:40;;;;;;;5.43;4.63;;;11.10;98.30;;;;;;4990741;28;20426;-75
2023/04/26 10:42:23;;;;;;;5.03;4.50;;;11.10;97.00;;;;;;4999988;28;20839;-75
2023/04/26 10:45:24;;;;;;;10.50;5.83;;;11.10;96.50;;;;;;5006765;28;20888;-76
2023/04/26 10:47:49;;;;;;;9.23;5.53;;;11.00;96.70;;;;;;4995002;28;20419;-76
2023/04/26 10:50:15;;;;;;;6.77;5.20;;;11.00;97.00;;;;;;5009317;28;20485;-76
2023/04/26 10:52:59;;;;;;;7.93;5.60;;;10.90;97.60;;;;;;5011162;28;20192;-75
2023/04/26 10:55:40;;;;;;;9.07;5.83;;;10.90;97.40;;;;;;5005297;28;20188;-76
2023/04/26 10:58:31;;;;;;;7.97;5.60;;;10.90;97.80;;;;;;4998939;28;20834;-76
2023/04/26 11:01:10;;;;;;;9.07;6.00;;;10.90;97.90;;;;;;5008609;28;20874;-76
2023/04/26 11:03:37;;;;;;;9.07;4.90;;;10.80;97.70;;;;;;5006243;28;20414;-76
2023/04/26 11:06:12;;;;;;;6.77;5.10;;;10.80;97.30;;;;;;5009049;28;20517;-76
2023/04/26 11:08:38;;;;;;;8.07;4.30;;;10.80;98.00;;;;;;5008614;28;20519;-76
2023/04/26 11:11:04;;;;;;;6.40;4.37;;;10.80;96.80;;;;;;5008846;28;20430;-77
2023/04/26 11:13:31;;;;;;;6.07;4.70;;;10.80;96.00;;;;;;5015914;28;20407;-76
2023/04/26 11:16:05;;;;;;;7.60;4.80;;;10.80;96.40;;;;;;4998285;28;20839;-76
2023/04/26 11:18:32;;;;;;;7.13;5.00;;;10.80;97.80;;;;;;4998159;28;20910;-76
2023/04/26 11:20:58;;;;;;;7.57;4.67;;;10.80;97.30;;;;;;4994254;28;20495;-76
2023/04/26 11:23:27;;;;;;;8.53;4.27;;;10.80;96.00;;;;;;5008095;28;20421;-76
2023/04/26 11:25:56;;;;;;;5.27;4.13;;;10.70;96.70;;;;;;5008879;28;20414;-76
2023/04/26 11:28:22;;;;;;;5.37;4.07;;;10.70;97.50;;;;;;5009007;28;20465;-76
2023/04/26 11:30:49;;;;;;;6.73;4.63;;;10.80;97.70;;;;;;5008606;28;20442;-76
2023/04/26 11:33:21;;;;;;;5.20;4.00;;;10.90;97.40;;;;;;5007264;28;20472;-76
2023/04/26 11:35:48;;;;;;;5.73;4.53;;;10.80;97.00;;;;;;5007504;28;20513;-76
2023/04/26 11:38:14;;;;;;;4.67;4.23;;;10.70;97.30;;;;;;5008759;28;20450;-76
2023/04/26 11:40:40;;;;;;;7.13;4.20;;;10.80;97.50;;;;;;5008634;28;20446;-76
2023/04/26 11:43:07;;;;;;;8.30;4.77;;;10.80;96.80;;;;;;5008695;28;20510;-76
2023/04/26 11:45:35;;;;;;;7.87;3.90;;;10.90;96.60;;;;;;5007715;28;20927;-76
2023/04/26 11:48:07;;;;;;;7.70;3.73;;;11.00;95.90;;;;;;5008496;28;20416;-76
2023/04/26 11:50:34;;;;;;;4.40;4.00;;;11.00;96.60;;;;;;5007938;28;21000;-75
2023/04/26 11:53:02;;;;;;;6.40;4.27;;;11.10;95.70;;;;;;4990363;28;20509;-75
2023/04/26 11:55:31;;;;;;;7.23;4.50;;;11.10;94.40;;;;;;5008733;28;20418;-76
2023/04/26 11:58:17;;;;;;;6.17;3.30;;;11.00;95.50;;;;;;5007359;28;20418;-75
2023/04/26 12:00:57;;;;;;;5.07;3.97;;;11.00;96.00;;;;;;5006831;28;20778;-76
2023/04/26 12:03:28;;;;;;;4.60;4.10;;;11.00;96.10;;;;;;5008328;28;20457;-75
2023/04/26 12:05:55;;;;;;;4.80;3.80;;;11.00;95.70;;;;;;5008961;28;20504;-75
2023/04/26 12:08:24;;;;;;;3.47;3.10;;;10.90;95.40;;;;;;5008397;28;20450;-75
2023/04/26 12:10:50;;;;;;;5.87;3.40;;;10.90;95.80;;;;;;5023779;28;20970;-75
2023/04/26 12:13:17;;;;;;;5.97;3.20;;;10.90;95.90;;;;;;5007146;28;20490;-75
2023/04/26 12:15:50;;;;;;;7.63;3.40;;;10.90;96.20;;;;;;5008867;28;20505;-76
2023/04/26 12:18:16;;;;;;;5.90;3.83;;;10.90;95.80;;;;;;5008439;28;20779;-75
2023/04/26 12:20:43;;;;;;;4.03;3.43;;;10.80;95.30;;;;;;5005600;28;20474;-75
2023/04/26 12:23:11;;;;;;;5.63;4.20;;;10.80;96.10;;;;;;4988819;28;20415;-75
2023/04/26 12:25:38;;;;;;;5.33;4.40;;;10.80;95.90;;;;;;4987998;28;20522;-75
2023/04/26 12:28:12;;;;;;;5.33;3.70;;;10.80;95.50;;;;;;4988653;28;20415;-75
2023/04/26 12:30:38;;;;;;;4.50;3.37;;;10.90;95.60;;;;;;4990777;28;20445;-76
2023/04/26 12:33:05;;;;;;;4.27;3.87;;;10.90;96.00;;;;;;4992587;28;20827;-76
2023/04/26 12:35:31;;;;;;;4.97;3.90;;;10.90;95.50;;;;;;5007880;28;20419;-76
2023/04/26 12:37:59;;;;;;;5.47;3.43;;;10.90;95.70;;;;;;4992564;28;20441;-75
2023/04/26 12:40:28;;;;;;;8.67;4.07;;;10.90;95.70;;;;;;5009241;28;20501;-75
2023/04/26 12:42:55;;;;;;;5.80;4.23;;;10.90;95.50;;;;;;5012257;28;20919;-75
2023/04/26 12:45:22;;;;;;;8.43;4.37;;;10.90;95.30;;;;;;5010692;28;20418;-75
2023/04/26 12:47:48;;;;;;;5.50;3.27;;;10.90;95.50;;;;;;5027345;28;20911;-75
2023/04/26 12:50:14;;;;;;;5.77;3.30;;;10.80;95.50;;;;;;5009515;28;20469;-75
2023/04/26 12:52:43;;;;;;;4.77;3.90;;;10.80;96.40;;;;;;5011246;28;20425;-75